Time;durP1;ratioP1;P1;durP2;ratioP2;P2;SDS_P1;SDS_P2;PMS_P1;PMS_P2;Temp;Humidity;BMP_temperature;BMP_pressure;BME280_temperature;BME280_humidity;BME280_pressure;Samples;Min_cycle;Max_cycle;Signal;HPM_P1;HPM_P2
2023/06/04 00:02:22;;;;;;;3.13;3.03;;;14.60;49.20;;;;;;5001513;28;20220;-87
2023/06/04 00:04:48;;;;;;;3.40;3.30;;;14.60;49.30;;;;;;4998279;28;20505;-87
2023/06/04 00:07:14;;;;;;;3.17;2.97;;;14.80;49.40;;;;;;4992779;28;20440;-87
2023/06/04 00:09:39;;;;;;;2.50;2.50;;;14.80;49.20;;;;;;4989913;28;20263;-87
2023/06/04 00:12:05;;;;;;;2.60;2.60;;;14.60;49.80;;;;;;4994016;28;20968;-87
2023/06/04 00:14:31;;;;;;;2.53;2.53;;;14.50;51.20;;;;;;4994593;28;20288;-87
2023/06/04 00:16:57;;;;;;;3.20;3.00;;;14.40;50.90;;;;;;4994650;28;20532;-87
2023/06/04 00:19:22;;;;;;;2.77;2.67;;;14.30;50.60;;;;;;5001152;28;20392;-87
2023/06/04 00:21:48;;;;;;;2.93;2.83;;;14.30;50.70;;;;;;4997637;28;20566;-87
2023/06/04 00:24:14;;;;;;;2.63;2.53;;;14.30;50.50;;;;;;4997376;28;20448;-88
2023/06/04 00:26:40;;;;;;;2.70;2.53;;;14.30;54.60;;;;;;5003443;28;20192;-87
2023/06/04 00:29:06;;;;;;;3.20;3.10;;;;;;;;;;5004011;28;20787;-87
2023/06/04 00:31:32;;;;;;;3.13;3.03;;;13.90;66.90;;;;;;4992917;28;20423;-87
2023/06/04 00:33:57;;;;;;;2.60;2.50;;;13.70;76.50;;;;;;4990808;28;20514;-88
2023/06/04 00:36:23;;;;;;;3.23;3.13;;;13.60;87.70;;;;;;5001137;28;20176;-87
2023/06/04 00:38:48;;;;;;;3.47;3.30;;;13.50;93.60;;;;;;5006378;28;20200;-87
2023/06/04 00:41:14;;;;;;;2.70;2.70;;;13.40;97.20;;;;;;5011475;28;20200;-86
2023/06/04 00:43:39;;;;;;;2.97;2.90;;;13.50;98.90;;;;;;5005804;28;20193;-86
2023/06/04 00:46:06;;;;;;;2.57;2.57;;;13.50;99.90;;;;;;5004884;28;20612;-87
2023/06/04 00:48:32;;;;;;;2.63;2.53;;;13.50;96.50;;;;;;4992134;28;20253;-88
2023/06/04 00:50:58;;;;;;;5.10;3.47;;;13.50;88.20;;;;;;4997660;28;20526;-87
2023/06/04 00:53:25;;;;;;;2.83;2.70;;;13.60;82.00;;;;;;4996485;28;20928;-88
2023/06/04 00:55:51;;;;;;;2.70;2.70;;;13.50;82.80;;;;;;4997597;28;20675;-88
2023/06/04 00:58:17;;;;;;;2.67;2.53;;;13.50;91.60;;;;;;5001570;28;20439;-88
2023/06/04 01:00:44;;;;;;;3.00;2.90;;;13.50;86.60;;;;;;5007890;28;20192;-87
2023/06/04 01:03:17;;;;;;;2.77;2.70;;;13.40;84.50;;;;;;4993208;28;20459;-87
2023/06/04 01:06:06;;;;;;;2.67;2.67;;;13.60;87.40;;;;;;4997958;28;20438;-88
2023/06/04 01:08:36;;;;;;;3.13;2.80;;;13.60;83.80;;;;;;4988792;28;20996;-88
2023/06/04 01:11:02;;;;;;;2.60;2.50;;;13.70;78.50;;;;;;5000732;28;20826;-89
2023/06/04 01:13:27;;;;;;;2.30;2.30;;;13.70;76.50;;;;;;4992910;28;20796;-89
2023/06/04 01:15:53;;;;;;;2.70;2.70;;;13.70;74.80;;;;;;4995825;28;20315;-88
2023/06/04 01:18:28;;;;;;;3.20;3.00;;;13.80;74.20;;;;;;4987519;28;20279;-88
2023/06/04 01:21:00;;;;;;;2.87;2.67;;;13.70;79.20;;;;;;4996179;28;20251;-88
2023/06/04 01:23:58;;;;;;;2.77;2.60;;;13.80;75.70;;;;;;4992610;28;20562;-87
2023/06/04 01:26:28;;;;;;;2.67;2.47;;;13.80;74.10;;;;;;5001007;28;20785;-88
2023/06/04 01:28:56;;;;;;;1.83;1.83;;;13.80;72.90;;;;;;5006001;28;20445;-89
2023/06/04 01:31:22;;;;;;;2.10;2.10;;;13.70;73.30;;;;;;5025402;28;20424;-81
2023/06/04 01:33:54;;;;;;;3.50;2.40;;;13.70;73.90;;;;;;5017937;28;20585;-88
2023/06/04 01:36:20;;;;;;;2.13;2.13;;;13.60;74.60;;;;;;4999617;28;20531;-87
2023/06/04 01:38:46;;;;;;;3.07;2.23;;;13.60;75.30;;;;;;4992585;28;20428;-87
2023/06/04 01:41:11;;;;;;;2.30;2.20;;;13.50;76.20;;;;;;4989456;28;21211;-88
2023/06/04 01:43:37;;;;;;;2.40;2.40;;;13.40;76.80;;;;;;4994795;28;20596;-87
2023/06/04 01:46:03;;;;;;;5.27;2.73;;;13.40;77.60;;;;;;5004924;28;20203;-88
2023/06/04 01:48:29;;;;;;;1.90;1.90;;;13.40;77.90;;;;;;4987655;28;20205;-86
2023/06/04 01:50:55;;;;;;;2.40;2.30;;;13.50;77.60;;;;;;4989839;28;20439;-89
2023/06/04 01:53:20;;;;;;;3.03;2.83;;;13.60;77.20;;;;;;4988949;28;20440;-88
2023/06/04 01:55:49;;;;;;;2.23;2.23;;;13.60;77.10;;;;;;4999643;28;20181;-86
2023/06/04 01:58:17;;;;;;;2.70;2.60;;;13.50;77.50;;;;;;4992702;28;20197;-87
2023/06/04 02:00:43;;;;;;;2.07;2.07;;;13.50;77.90;;;;;;4997703;28;20542;-87
2023/06/04 02:03:10;;;;;;;2.10;2.10;;;13.50;78.30;;;;;;4999346;28;20466;-88
2023/06/04 02:05:36;;;;;;;2.73;2.70;;;13.40;78.30;;;;;;4996369;28;20611;-88
2023/06/04 02:08:04;;;;;;;3.00;2.90;;;13.40;78.40;;;;;;4998381;28;20478;-88
2023/06/04 02:10:30;;;;;;;2.90;2.63;;;13.20;78.50;;;;;;4993802;28;20512;-88
2023/06/04 02:13:04;;;;;;;2.77;2.77;;;13.10;79.60;;;;;;4994064;28;20539;-87
2023/06/04 02:15:32;;;;;;;3.70;3.13;;;13.00;80.60;;;;;;5003825;28;20226;-88
2023/06/04 02:17:59;;;;;;;3.43;3.20;;;13.00;81.20;;;;;;4991252;28;20514;-88
2023/06/04 02:20:26;;;;;;;2.70;2.60;;;13.00;81.50;;;;;;5005195;28;20455;-88
2023/06/04 02:22:57;;;;;;;4.00;2.80;;;13.10;81.60;;;;;;5001914;28;20515;-88
2023/06/04 02:25:23;;;;;;;2.70;2.60;;;13.10;81.60;;;;;;5008001;28;20423;-88
2023/06/04 02:27:49;;;;;;;3.13;3.03;;;13.20;81.10;;;;;;4990421;28;20446;-88
2023/06/04 02:30:16;;;;;;;2.67;2.57;;;13.20;81.30;;;;;;5001594;28;20419;-88
2023/06/04 02:32:44;;;;;;;2.80;2.80;;;13.10;82.20;;;;;;5001005;28;20513;-88
2023/06/04 02:35:10;;;;;;;4.43;2.63;;;13.00;85.50;;;;;;4993935;28;20420;-88
2023/06/04 02:37:35;;;;;;;2.87;2.77;;;13.00;84.20;;;;;;5000718;28;20840;-88
2023/06/04 02:40:01;;;;;;;2.23;2.23;;;13.00;83.30;;;;;;5007218;28;20773;-88
2023/06/04 02:42:27;;;;;;;5.80;3.70;;;13.00;83.10;;;;;;4989869;28;20189;-88
2023/06/04 02:44:52;;;;;;;2.93;2.73;;;12.70;84.60;;;;;;5004820;28;20196;-88
2023/06/04 02:47:19;;;;;;;2.57;2.37;;;12.80;85.10;;;;;;4995826;28;20299;-88
2023/06/04 02:49:46;;;;;;;7.93;4.00;;;12.80;86.10;;;;;;4995672;28;20291;-88
2023/06/04 02:52:12;;;;;;;2.53;2.50;;;12.80;86.90;;;;;;4997595;28;20444;-88
2023/06/04 02:54:37;;;;;;;2.73;2.70;;;12.70;86.20;;;;;;4999570;28;20451;-88
2023/06/04 02:57:03;;;;;;;2.60;2.50;;;12.60;87.50;;;;;;5000124;28;20193;-88
2023/06/04 02:59:29;;;;;;;2.30;2.30;;;12.60;91.10;;;;;;4992773;28;20452;-88
2023/06/04 03:01:55;;;;;;;2.67;2.60;;;12.70;90.60;;;;;;4997872;28;20468;-88
2023/06/04 03:04:20;;;;;;;3.13;2.93;;;12.70;90.90;;;;;;4990762;28;20439;-88
2023/06/04 03:06:47;;;;;;;2.73;2.60;;;12.60;90.50;;;;;;4999832;28;20196;-88
2023/06/04 03:09:15;;;;;;;2.43;2.43;;;12.50;90.70;;;;;;4991809;28;20189;-87
2023/06/04 03:11:40;;;;;;;2.60;2.60;;;12.60;91.00;;;;;;5001493;28;20518;-88
2023/06/04 03:14:06;;;;;;;3.37;3.07;;;12.50;92.50;;;;;;5002487;28;20479;-88
2023/06/04 03:16:32;;;;;;;2.83;2.67;;;12.50;95.30;;;;;;4991426;28;20264;-88
2023/06/04 03:18:58;;;;;;;2.83;2.67;;;12.50;98.60;;;;;;4994301;28;20428;-87
2023/06/04 03:21:24;;;;;;;2.80;2.70;;;12.40;99.90;;;;;;4997483;28;20476;-87
2023/06/04 03:23:50;;;;;;;3.03;2.60;;;12.30;99.90;;;;;;5023705;28;20217;-87
2023/06/04 03:26:16;;;;;;;2.63;2.53;;;12.30;99.90;;;;;;5019566;28;20425;-88
2023/06/04 03:28:41;;;;;;;4.53;2.80;;;12.30;97.20;;;;;;5004615;28;20535;-88
2023/06/04 03:31:07;;;;;;;2.63;2.57;;;12.20;96.80;;;;;;4998018;28;20271;-87
2023/06/04 03:33:32;;;;;;;2.80;2.70;;;12.30;96.40;;;;;;4993519;28;20268;-88
2023/06/04 03:35:58;;;;;;;3.33;3.20;;;12.30;97.70;;;;;;4994090;28;20181;-87
2023/06/04 03:38:25;;;;;;;2.30;2.30;;;12.30;97.40;;;;;;4998419;28;20197;-87
2023/06/04 03:40:52;;;;;;;2.87;2.80;;;12.30;97.20;;;;;;5000324;28;20877;-87
2023/06/04 03:43:18;;;;;;;3.13;3.03;;;12.20;98.00;;;;;;4995645;28;20521;-87
2023/06/04 03:45:44;;;;;;;3.20;3.00;;;12.20;99.30;;;;;;4989660;28;20428;-88
2023/06/04 03:48:10;;;;;;;4.17;2.90;;;12.10;98.40;;;;;;4987760;28;20448;-87
2023/06/04 03:50:36;;;;;;;2.60;2.53;;;12.10;99.90;;;;;;4990825;28;20168;-87
2023/06/04 03:53:04;;;;;;;3.33;3.13;;;12.10;99.80;;;;;;4989416;28;20427;-86
2023/06/04 03:55:32;;;;;;;3.43;3.13;;;12.10;99.90;;;;;;5003426;28;20624;-87
2023/06/04 03:57:57;;;;;;;2.60;2.50;;;12.10;99.90;;;;;;4989247;28;20428;-85
2023/06/04 04:00:23;;;;;;;2.00;2.00;;;12.10;99.90;;;;;;5000206;28;20466;-87
2023/06/04 04:02:49;;;;;;;2.90;2.90;;;12.00;99.90;;;;;;5000111;28;20451;-89
2023/06/04 04:05:15;;;;;;;2.97;2.87;;;12.00;99.90;;;;;;4997653;28;20188;-89
2023/06/04 04:07:41;;;;;;;3.17;3.00;;;12.10;99.90;;;;;;4999280;28;20529;-89
2023/06/04 04:10:07;;;;;;;2.87;2.87;;;12.20;99.90;;;;;;5001044;28;20423;-88
2023/06/04 04:12:33;;;;;;;2.73;2.67;;;12.20;99.90;;;;;;4992268;28;20192;-86
2023/06/04 04:14:58;;;;;;;3.50;2.60;;;12.10;99.90;;;;;;5003006;28;20454;-88
2023/06/04 04:17:24;;;;;;;2.97;2.93;;;12.10;99.90;;;;;;4988995;28;20196;-87
2023/06/04 04:19:50;;;;;;;4.00;3.20;;;12.10;99.90;;;;;;5000428;28;20328;-88
2023/06/04 04:22:17;;;;;;;3.03;2.93;;;12.10;99.90;;;;;;4996226;28;20975;-88
2023/06/04 04:24:43;;;;;;;2.83;2.73;;;12.20;99.90;;;;;;4985560;28;20250;-87
2023/06/04 04:27:13;;;;;;;3.20;3.10;;;12.30;99.90;;;;;;5004915;28;20431;-88
2023/06/04 04:29:39;;;;;;;3.10;3.00;;;12.30;99.90;;;;;;4992188;28;20428;-87
2023/06/04 04:32:11;;;;;;;6.20;2.67;;;12.20;99.90;;;;;;5000111;28;20459;-88
2023/06/04 04:34:54;;;;;;;3.33;2.90;;;12.20;99.90;;;;;;4994180;28;20445;-88
2023/06/04 04:37:21;;;;;;;3.80;3.00;;;12.20;99.90;;;;;;4997520;28;20451;-88
2023/06/04 04:39:47;;;;;;;3.17;2.80;;;12.20;99.90;;;;;;5003660;28;20456;-87
2023/06/04 04:42:13;;;;;;;2.77;2.77;;;12.10;99.90;;;;;;4991864;28;20479;-88
2023/06/04 04:44:38;;;;;;;2.50;2.50;;;12.20;99.90;;;;;;5018725;28;20203;-87
2023/06/04 04:47:04;;;;;;;4.83;3.53;;;12.30;99.90;;;;;;5010349;28;20189;-88
2023/06/04 04:49:29;;;;;;;3.20;3.10;;;12.70;99.90;;;;;;4997258;28;20204;-88
2023/06/04 04:51:55;;;;;;;2.50;2.50;;;12.90;99.90;;;;;;4999083;28;20197;-88
2023/06/04 04:54:21;;;;;;;3.70;2.77;;;13.20;99.90;;;;;;4995394;28;20299;-89
2023/06/04 04:56:46;;;;;;;3.70;3.03;;;13.70;98.90;;;;;;5006042;28;20188;-88
2023/06/04 04:59:12;;;;;;;3.20;3.20;;;14.20;96.40;;;;;;4991117;28;20942;-88
2023/06/04 05:01:37;;;;;;;3.37;3.17;;;14.50;93.30;;;;;;4996626;28;20284;-88
2023/06/04 05:04:03;;;;;;;3.10;3.10;;;14.10;93.00;;;;;;4998113;28;20518;-89
2023/06/04 05:06:28;;;;;;;3.70;3.40;;;14.20;92.90;;;;;;5000059;28;20293;-88
2023/06/04 05:08:54;;;;;;;3.10;3.00;;;14.10;93.10;;;;;;4990531;28;20696;-88
2023/06/04 05:11:21;;;;;;;3.90;3.20;;;13.90;93.10;;;;;;4997019;28;20640;-89
2023/06/04 05:13:46;;;;;;;6.33;3.70;;;13.90;93.70;;;;;;4994769;28;20325;-88
2023/06/04 05:16:12;;;;;;;3.23;3.13;;;14.10;93.70;;;;;;5009101;28;20508;-89
2023/06/04 05:18:44;;;;;;;3.80;3.70;;;14.20;93.50;;;;;;5021897;28;20226;-89
2023/06/04 05:21:11;;;;;;;3.53;3.43;;;14.70;93.40;;;;;;5019590;28;20472;-89
2023/06/04 05:23:38;;;;;;;3.00;2.90;;;15.00;91.60;;;;;;4999775;28;20932;-87
2023/06/04 05:26:04;;;;;;;3.83;3.13;;;15.50;90.10;;;;;;4994048;28;20680;-89
2023/06/04 05:28:33;;;;;;;4.30;4.00;;;15.90;86.70;;;;;;4996622;28;20728;-88
2023/06/04 05:30:59;;;;;;;3.13;3.03;;;15.90;84.60;;;;;;4994702;28;20615;-89
2023/06/04 05:33:26;;;;;;;3.73;3.63;;;16.20;83.50;;;;;;4996247;28;20605;-88
2023/06/04 05:35:54;;;;;;;4.00;3.80;;;16.70;79.90;;;;;;5001594;28;20450;-89
2023/06/04 05:38:20;;;;;;;4.70;4.40;;;17.10;76.70;;;;;;4994100;28;20444;-89
2023/06/04 05:40:46;;;;;;;3.90;3.80;;;17.20;74.60;;;;;;5005059;28;20809;-89
2023/06/04 05:43:12;;;;;;;3.40;3.30;;;17.20;73.20;;;;;;4995472;28;20449;-89
2023/06/04 05:45:38;;;;;;;3.57;3.47;;;16.90;74.00;;;;;;4995512;28;20652;-89
2023/06/04 05:48:04;;;;;;;3.17;3.17;;;17.30;72.10;;;;;;5003442;28;20231;-89
2023/06/04 05:50:30;;;;;;;3.73;3.67;;;17.50;71.60;;;;;;4999356;28;20243;-89
2023/06/04 05:52:56;;;;;;;3.63;3.63;;;18.00;68.90;;;;;;5003421;28;20435;-90
2023/06/04 05:55:22;;;;;;;3.53;3.50;;;18.50;66.20;;;;;;5002074;28;20927;-89
2023/06/04 05:57:48;;;;;;;3.17;3.10;;;18.50;64.50;;;;;;4999160;28;20654;-89
2023/06/04 06:00:15;;;;;;;3.77;3.60;;;19.00;60.90;;;;;;5009826;28;20184;-89
2023/06/04 06:02:40;;;;;;;3.90;3.80;;;18.00;60.00;;;;;;4999733;28;20538;-88
2023/06/04 06:05:09;;;;;;;3.63;3.53;;;17.50;62.90;;;;;;5009151;28;20503;-88
2023/06/04 06:07:35;;;;;;;3.70;3.50;;;17.30;63.90;;;;;;5005978;28;20458;-88
2023/06/04 06:10:02;;;;;;;3.53;3.20;;;17.70;63.80;;;;;;5009520;28;20450;-89
2023/06/04 06:12:28;;;;;;;3.53;3.40;;;18.20;61.60;;;;;;5004060;28;20446;-89
2023/06/04 06:14:55;;;;;;;4.03;3.93;;;18.30;59.50;;;;;;5002687;28;20437;-88
2023/06/04 06:17:23;;;;;;;3.60;3.40;;;18.00;59.40;;;;;;4992066;28;20221;-89
2023/06/04 06:19:49;;;;;;;3.50;3.40;;;18.10;60.20;;;;;;5005224;28;20510;-89
2023/06/04 06:22:15;;;;;;;3.43;3.33;;;19.00;59.50;;;;;;5002244;28;20475;-88
2023/06/04 06:24:41;;;;;;;3.60;3.40;;;19.40;58.10;;;;;;4991591;28;20235;-89
2023/06/04 06:27:06;;;;;;;4.00;3.70;;;19.20;57.50;;;;;;4996344;28;20197;-89
2023/06/04 06:29:33;;;;;;;2.90;2.90;;;19.80;56.60;;;;;;5000429;28;20184;-90
2023/06/04 06:31:59;;;;;;;4.40;3.00;;;20.30;55.40;;;;;;4995417;28;20221;-89
2023/06/04 06:34:24;;;;;;;2.90;2.90;;;20.80;54.60;;;;;;4997291;28;20420;-89
2023/06/04 06:36:50;;;;;;;3.30;3.07;;;21.20;53.70;;;;;;5000828;28;20185;-89
2023/06/04 06:39:16;;;;;;;2.70;2.70;;;21.20;53.00;;;;;;5002378;28;20170;-90
2023/06/04 06:41:42;;;;;;;3.57;3.27;;;21.40;52.10;;;;;;5003360;28;20272;-88
2023/06/04 06:44:07;;;;;;;2.80;2.80;;;21.00;51.30;;;;;;5002993;28;20655;-88
2023/06/04 06:46:33;;;;;;;3.30;3.20;;;21.10;51.20;;;;;;5000890;28;20440;-88
2023/06/04 06:48:58;;;;;;;3.00;2.90;;;21.40;50.90;;;;;;5000899;28;20326;-88
2023/06/04 06:51:24;;;;;;;3.47;3.37;;;21.40;50.50;;;;;;4995953;28;20290;-89
2023/06/04 06:53:52;;;;;;;3.27;3.10;;;21.90;50.40;;;;;;4995061;28;20193;-89
2023/06/04 06:56:18;;;;;;;3.07;2.97;;;22.60;50.20;;;;;;4999269;28;20637;-88
2023/06/04 06:58:45;;;;;;;3.00;2.90;;;22.80;49.30;;;;;;5001367;28;20546;-90
2023/06/04 07:01:11;;;;;;;3.03;2.73;;;23.40;49.20;;;;;;5007629;28;20843;-88
2023/06/04 07:03:38;;;;;;;3.23;3.07;;;23.90;48.60;;;;;;5003561;28;20507;-88
2023/06/04 07:06:03;;;;;;;3.50;2.93;;;24.10;47.60;;;;;;5008549;28;20435;-89
2023/06/04 07:08:29;;;;;;;2.53;2.53;;;24.00;47.50;;;;;;4999506;28;20449;-90
2023/06/04 07:10:54;;;;;;;3.90;2.77;;;24.10;47.60;;;;;;5013079;28;20224;-89
2023/06/04 07:13:20;;;;;;;2.97;2.87;;;23.20;46.70;;;;;;5025047;28;20185;-85
2023/06/04 07:15:46;;;;;;;3.50;3.17;;;22.60;47.40;;;;;;5026983;28;20196;-88
2023/06/04 07:18:11;;;;;;;2.60;2.50;;;22.90;47.10;;;;;;5004766;28;20193;-89
2023/06/04 07:20:37;;;;;;;2.40;2.30;;;23.20;47.20;;;;;;5008782;28;20250;-89
2023/06/04 07:23:03;;;;;;;3.13;3.03;;;23.90;46.60;;;;;;5000684;28;20193;-88
2023/06/04 07:25:28;;;;;;;2.57;2.40;;;24.20;46.10;;;;;;5004854;28;20185;-89
2023/06/04 07:27:57;;;;;;;2.77;2.77;;;24.60;45.90;;;;;;5002447;28;20700;-89
2023/06/04 07:30:24;;;;;;;2.80;2.80;;;24.20;44.70;;;;;;4998341;28;20209;-88
2023/06/04 07:32:49;;;;;;;2.43;2.43;;;24.10;45.30;;;;;;5003907;28;20459;-88
2023/06/04 07:35:15;;;;;;;3.00;2.87;;;24.30;45.00;;;;;;5008102;28;20482;-88
2023/06/04 07:37:43;;;;;;;2.43;2.20;;;24.80;44.60;;;;;;5001350;28;20185;-89
2023/06/04 07:40:10;;;;;;;2.70;2.70;;;25.10;44.50;;;;;;5002345;28;20482;-83
2023/06/04 07:42:36;;;;;;;2.83;2.57;;;25.60;44.00;;;;;;5000972;28;20805;-89
2023/06/04 07:45:02;;;;;;;3.20;2.70;;;26.60;46.70;;;;;;5000449;28;20442;-87
2023/06/04 07:47:28;;;;;;;2.60;2.50;;;27.20;46.60;;;;;;5000402;28;20212;-89
2023/06/04 07:49:53;;;;;;;2.57;2.57;;;27.60;46.20;;;;;;5009182;28;20430;-88
2023/06/04 07:52:19;;;;;;;2.57;2.47;;;28.10;46.50;;;;;;5006261;28;20188;-88
2023/06/04 07:54:44;;;;;;;15.40;4.80;;;27.60;46.70;;;;;;5001234;28;20657;-88
2023/06/04 07:57:12;;;;;;;2.83;2.60;;;27.60;47.50;;;;;;5003293;28;20576;-88
2023/06/04 07:59:38;;;;;;;2.97;2.60;;;27.50;47.50;;;;;;5009699;28;20188;-88
2023/06/04 08:02:03;;;;;;;3.17;3.07;;;27.40;47.60;;;;;;5005727;28;20515;-90
2023/06/04 08:04:29;;;;;;;2.67;2.57;;;27.60;48.20;;;;;;5012243;28;20176;-90
2023/06/04 08:06:55;;;;;;;2.70;2.60;;;27.80;48.70;;;;;;4998492;28;20208;-89
2023/06/04 08:09:21;;;;;;;2.83;2.70;;;27.90;49.30;;;;;;5008726;28;20183;-88
2023/06/04 08:11:47;;;;;;;2.23;2.23;;;;;;;;;;5009036;28;20436;-89
2023/06/04 08:14:13;;;;;;;2.97;2.87;;;28.90;46.50;;;;;;5009927;28;20200;-89
2023/06/04 08:16:40;;;;;;;3.63;3.33;;;28.80;45.90;;;;;;5008524;28;20435;-87
2023/06/04 08:19:07;;;;;;;2.70;2.70;;;28.50;46.60;;;;;;5013984;28;20192;-88
2023/06/04 08:21:37;;;;;;;2.97;2.87;;;;;;;;;;5012025;28;20463;-89
2023/06/04 08:24:03;;;;;;;2.90;2.80;;;29.40;39.30;;;;;;5014743;28;20426;-89
2023/06/04 08:26:28;;;;;;;2.73;2.63;;;28.70;39.40;;;;;;5008735;28;20428;-90
2023/06/04 08:28:55;;;;;;;3.20;3.00;;;28.70;39.60;;;;;;5009792;28;20762;-90
2023/06/04 08:31:21;;;;;;;2.60;2.60;;;29.20;39.70;;;;;;5001008;28;20196;-89
2023/06/04 08:33:47;;;;;;;4.57;2.73;;;29.30;39.00;;;;;;5004703;28;20444;-87
2023/06/04 08:36:13;;;;;;;2.90;2.80;;;29.50;38.70;;;;;;5001679;28;20756;-88
2023/06/04 08:38:38;;;;;;;3.10;3.07;;;30.10;38.50;;;;;;5002578;28;20442;-88
2023/06/04 08:41:16;;;;;;;3.90;3.43;;;30.80;37.40;;;;;;4997032;28;20218;-88
2023/06/04 08:43:45;;;;;;;2.83;2.83;;;30.90;37.30;;;;;;5009969;28;20444;-89
2023/06/04 08:46:12;;;;;;;3.63;3.33;;;31.20;37.00;;;;;;5006986;28;20431;-88
2023/06/04 08:48:38;;;;;;;3.70;2.87;;;31.60;36.30;;;;;;5006965;28;20897;-88
2023/06/04 08:51:08;;;;;;;3.90;3.80;;;31.90;36.40;;;;;;5002943;28;20632;-90
2023/06/04 08:53:34;;;;;;;7.73;4.47;;;30.70;35.60;;;;;;5005662;28;20458;-86
2023/06/04 08:56:00;;;;;;;4.60;4.27;;;30.50;35.40;;;;;;5008305;28;20439;-88
2023/06/04 08:58:27;;;;;;;4.10;3.97;;;29.60;35.40;;;;;;5007285;28;20800;-88
2023/06/04 09:00:53;;;;;;;3.90;3.60;;;29.90;35.10;;;;;;5006791;28;20259;-89
2023/06/04 09:03:20;;;;;;;4.10;4.10;;;29.20;35.40;;;;;;5009052;28;20434;-88
2023/06/04 09:05:49;;;;;;;4.30;4.17;;;30.10;35.40;;;;;;5022515;28;20200;-88
2023/06/04 09:08:18;;;;;;;4.10;4.10;;;31.00;35.00;;;;;;5028614;28;20424;-89
2023/06/04 09:10:46;;;;;;;3.83;3.63;;;31.00;34.50;;;;;;5021130;28;20465;-89
2023/06/04 09:13:15;;;;;;;3.57;3.50;;;31.50;34.70;;;;;;5007743;28;20462;-90
2023/06/04 09:15:41;;;;;;;3.77;3.77;;;31.50;34.10;;;;;;5005766;28;20428;-89
2023/06/04 09:18:07;;;;;;;6.63;3.73;;;32.20;33.40;;;;;;5005328;28;21068;-87
2023/06/04 09:20:32;;;;;;;3.40;3.30;;;31.50;33.60;;;;;;4997424;28;20561;-87
2023/06/04 09:22:59;;;;;;;3.13;3.03;;;31.70;33.40;;;;;;5001805;28;20217;-89
2023/06/04 09:25:27;;;;;;;3.87;3.77;;;30.90;33.10;;;;;;5006477;28;20447;-89
2023/06/04 09:28:05;;;;;;;6.03;3.80;;;29.90;33.50;;;;;;5002927;28;20220;-86
2023/06/04 09:30:30;;;;;;;3.10;3.03;;;29.50;33.80;;;;;;5005086;28;20902;-90
2023/06/04 09:33:08;;;;;;;3.20;2.93;;;28.60;34.10;;;;;;5009253;28;20455;-90
2023/06/04 09:35:35;;;;;;;3.53;3.30;;;29.30;34.10;;;;;;5006946;28;20207;-87
2023/06/04 09:38:00;;;;;;;3.93;3.77;;;29.10;33.70;;;;;;5004705;28;20443;-88
2023/06/04 09:40:37;;;;;;;2.77;2.77;;;29.30;34.00;;;;;;5009487;28;20521;-87
2023/06/04 09:43:02;;;;;;;3.50;3.30;;;29.90;33.20;;;;;;4998627;28;20185;-90
2023/06/04 09:45:29;;;;;;;3.30;3.20;;;30.30;33.30;;;;;;5010204;28;20411;-90
2023/06/04 09:47:54;;;;;;;3.43;3.33;;;30.80;33.30;;;;;;5012377;28;20275;-89
2023/06/04 09:50:26;;;;;;;3.63;3.33;;;30.90;33.50;;;;;;5008344;28;20459;-89
2023/06/04 09:52:52;;;;;;;3.20;3.00;;;31.20;33.50;;;;;;5004261;28;20192;-89
2023/06/04 09:55:20;;;;;;;4.40;3.37;;;31.00;32.70;;;;;;5020540;28;20399;-89
2023/06/04 09:57:47;;;;;;;3.00;2.97;;;30.20;32.70;;;;;;5014373;28;20420;-86
2023/06/04 10:00:16;;;;;;;3.17;3.03;;;30.20;33.20;;;;;;5015111;28;20444;-88
2023/06/04 10:02:44;;;;;;;3.13;2.93;;;31.20;32.60;;;;;;5007746;28;20516;-86
2023/06/04 10:05:14;;;;;;;2.97;2.97;;;31.50;32.80;;;;;;5006017;28;20419;-90
2023/06/04 10:07:44;;;;;;;3.87;3.40;;;32.30;32.10;;;;;;5005421;28;20681;-88
2023/06/04 10:10:16;;;;;;;3.33;3.03;;;32.40;31.80;;;;;;5020673;28;20423;-88
2023/06/04 10:12:42;;;;;;;3.10;2.97;;;30.80;32.00;;;;;;5003942;28;20468;-88
2023/06/04 10:15:12;;;;;;;4.20;2.87;;;31.40;32.20;;;;;;5010918;28;20437;-89
2023/06/04 10:17:38;;;;;;;2.97;2.87;;;31.80;31.90;;;;;;5013906;28;20435;-87
2023/06/04 10:20:05;;;;;;;2.97;2.87;;;30.20;32.40;;;;;;5021408;28;20430;-86
2023/06/04 10:22:32;;;;;;;3.07;2.93;;;28.90;32.90;;;;;;5003347;28;20463;-89
2023/06/04 10:24:58;;;;;;;2.93;2.70;;;30.20;32.70;;;;;;5017774;28;20478;-86
2023/06/04 10:27:24;;;;;;;2.73;2.63;;;31.20;31.90;;;;;;5018912;28;20526;-88
2023/06/04 10:29:52;;;;;;;4.87;3.70;;;31.80;31.40;;;;;;5008204;28;20475;-88
2023/06/04 10:32:18;;;;;;;3.33;3.13;;;30.50;31.70;;;;;;5002130;28;20314;-87
2023/06/04 10:34:46;;;;;;;3.33;3.10;;;30.50;31.80;;;;;;5009215;28;20879;-88
2023/06/04 10:37:22;;;;;;;2.80;2.80;;;31.50;31.90;;;;;;5010014;28;20515;-90
2023/06/04 10:39:55;;;;;;;2.60;2.60;;;32.10;30.90;;;;;;5011786;28;20526;-85
2023/06/04 10:42:23;;;;;;;3.20;3.10;;;33.30;30.50;;;;;;5000014;28;20503;-86
2023/06/04 10:44:59;;;;;;;4.83;3.10;;;33.70;30.40;;;;;;5011666;28;20531;-90
2023/06/04 10:47:26;;;;;;;2.90;2.90;;;34.00;30.00;;;;;;5014965;28;20443;-88
2023/06/04 10:50:12;;;;;;;4.33;3.80;;;33.70;30.00;;;;;;5022120;28;20478;-89
2023/06/04 10:52:49;;;;;;;3.33;3.23;;;33.90;30.00;;;;;;5012239;28;20538;-88
2023/06/04 10:55:15;;;;;;;4.93;4.00;;;34.80;30.00;;;;;;5011850;28;20404;-90
2023/06/04 10:57:54;;;;;;;4.33;4.03;;;33.30;30.40;;;;;;5006983;28;20443;-89
2023/06/04 11:00:34;;;;;;;6.10;3.60;;;33.70;30.50;;;;;;5027328;28;20181;-88
2023/06/04 11:03:00;;;;;;;2.37;2.37;;;34.30;30.40;;;;;;5021339;28;20412;-89
2023/06/04 11:05:42;;;;;;;2.87;2.83;;;33.70;30.00;;;;;;5019215;28;20404;-87
2023/06/04 11:08:09;;;;;;;3.07;3.07;;;35.00;30.00;;;;;;5014568;28;20503;-89
2023/06/04 11:10:37;;;;;;;3.20;3.07;;;34.90;29.40;;;;;;5004091;28;20967;-85
2023/06/04 11:13:04;;;;;;;2.93;2.83;;;34.00;29.20;;;;;;5005287;28;20461;-89
2023/06/04 11:15:46;;;;;;;2.90;2.90;;;34.60;29.30;;;;;;5009895;28;20845;-90
2023/06/04 11:18:16;;;;;;;3.53;3.33;;;33.60;29.30;;;;;;5012426;28;20447;-90
2023/06/04 11:20:43;;;;;;;3.20;3.10;;;33.50;30.00;;;;;;5014106;28;20904;-88
2023/06/04 11:23:12;;;;;;;2.83;2.83;;;33.00;29.40;;;;;;5012239;28;20952;-89
2023/06/04 11:25:38;;;;;;;3.00;2.90;;;33.30;29.30;;;;;;5012468;28;20441;-89
2023/06/04 11:28:04;;;;;;;3.60;3.47;;;32.90;29.30;;;;;;5008440;28;20432;-88
2023/06/04 11:30:30;;;;;;;4.00;3.63;;;33.40;29.40;;;;;;5013171;28;20599;-90
2023/06/04 11:33:06;;;;;;;3.37;3.27;;;34.10;29.20;;;;;;5006823;28;20459;-88
2023/06/04 11:35:39;;;;;;;3.13;3.03;;;33.30;28.70;;;;;;5023630;28;20411;-89
2023/06/04 11:38:05;;;;;;;3.23;3.00;;;34.00;29.20;;;;;;5010864;28;20452;-89
2023/06/04 11:40:31;;;;;;;4.00;2.50;;;34.80;29.00;;;;;;5013767;28;20444;-87
2023/06/04 11:42:57;;;;;;;2.80;2.70;;;33.80;28.90;;;;;;5017989;28;20599;-87
2023/06/04 11:45:23;;;;;;;2.50;2.50;;;34.20;28.60;;;;;;5015579;28;20196;-89
2023/06/04 11:47:51;;;;;;;3.10;3.00;;;33.80;28.80;;;;;;5010322;28;20479;-89
2023/06/04 11:50:17;;;;;;;2.50;2.40;;;33.60;29.10;;;;;;5006824;28;20422;-89
2023/06/04 11:52:43;;;;;;;2.67;2.57;;;33.30;28.80;;;;;;5000480;28;20457;-91
2023/06/04 11:55:10;;;;;;;3.03;2.93;;;33.60;29.20;;;;;;5004038;28;20576;-89
2023/06/04 11:57:37;;;;;;;2.77;2.67;;;34.10;29.10;;;;;;5003586;28;20343;-87
2023/06/04 12:00:09;;;;;;;2.83;2.80;;;33.60;28.80;;;;;;5010129;28;20416;-88
2023/06/04 12:02:35;;;;;;;3.10;2.90;;;32.70;29.10;;;;;;5004907;28;20540;-86
2023/06/04 12:05:14;;;;;;;2.80;2.70;;;32.60;29.50;;;;;;5008124;28;20526;-84
2023/06/04 12:07:41;;;;;;;2.73;2.73;;;32.90;29.30;;;;;;5008951;28;20478;-89
2023/06/04 12:10:08;;;;;;;3.37;3.17;;;32.70;29.70;;;;;;5010671;28;20495;-87
2023/06/04 12:12:35;;;;;;;3.23;3.23;;;33.00;29.40;;;;;;5009744;28;20581;-87
2023/06/04 12:15:01;;;;;;;3.00;2.83;;;33.60;29.20;;;;;;5006988;28;20509;-90
2023/06/04 12:17:26;;;;;;;4.20;4.10;;;34.10;29.00;;;;;;5004633;28;20486;-89
2023/06/04 12:19:52;;;;;;;2.47;2.47;;;34.60;29.10;;;;;;5013816;28;20435;-88
2023/06/04 12:22:18;;;;;;;3.13;2.90;;;34.70;28.80;;;;;;5007735;28;20277;-89
2023/06/04 12:24:54;;;;;;;2.67;2.67;;;34.40;29.10;;;;;;5019792;28;20188;-88
2023/06/04 12:27:22;;;;;;;3.10;2.97;;;35.10;29.10;;;;;;5008858;28;20415;-85
2023/06/04 12:30:02;;;;;;;3.10;2.80;;;34.70;28.90;;;;;;5023225;28;20408;-83
2023/06/04 12:32:28;;;;;;;3.83;3.73;;;33.60;29.40;;;;;;5010129;28;20468;-87
2023/06/04 12:34:55;;;;;;;3.00;2.90;;;33.80;29.40;;;;;;5016012;28;20877;-88
2023/06/04 12:37:21;;;;;;;2.90;2.90;;;34.20;29.30;;;;;;5015829;28;20431;-88
2023/06/04 12:39:47;;;;;;;3.73;3.50;;;33.40;29.30;;;;;;5009426;28;20422;-88
2023/06/04 12:42:13;;;;;;;3.00;3.00;;;33.50;29.60;;;;;;5010278;28;20496;-89
2023/06/04 12:44:40;;;;;;;3.00;2.80;;;34.50;29.80;;;;;;5015144;28;20244;-85
2023/06/04 12:47:06;;;;;;;2.60;2.60;;;34.40;29.30;;;;;;5007324;28;20192;-85
2023/06/04 12:49:32;;;;;;;2.93;2.67;;;33.70;28.40;;;;;;4988890;28;20440;-86